createdAt,value
2019-03-28T00:02:16.179Z,16.23
2019-03-28T00:04:44.310Z,15.63
2019-03-28T00:07:12.681Z,20.50
2019-03-28T00:09:40.929Z,15.10
2019-03-28T00:12:09.267Z,14.40
2019-03-28T00:14:37.131Z,13.07
2019-03-28T00:17:05.012Z,12.67
2019-03-28T00:19:32.858Z,11.07
2019-03-28T00:22:00.863Z,11.93
2019-03-28T00:24:32.798Z,11.80
2019-03-28T00:27:00.807Z,13.67
2019-03-28T00:29:30.080Z,11.17
2019-03-28T00:31:58.026Z,10.50
2019-03-28T00:34:25.929Z,10.43
2019-03-28T00:36:53.971Z,11.23
2019-03-28T00:39:22.449Z,10.77
2019-03-28T00:41:50.507Z,11.83
2019-03-28T00:44:18.364Z,8.37
2019-03-28T00:46:46.388Z,8.90
2019-03-28T00:49:14.186Z,6.87
2019-03-28T00:51:43.317Z,8.50
2019-03-28T00:54:11.547Z,10.20
2019-03-28T00:56:46.776Z,10.27
2019-03-28T00:59:09.509Z,8.97
2019-03-28T01:01:37.494Z,6.73
2019-03-28T01:04:05.709Z,12.03
2019-03-28T01:06:33.775Z,11.07
2019-03-28T01:09:04.201Z,10.73
2019-03-28T01:11:32.955Z,10.13
2019-03-28T01:14:01.011Z,12.00
2019-03-28T01:16:29.992Z,10.80
2019-03-28T01:18:58.109Z,10.00
2019-03-28T01:21:26.144Z,10.43
2019-03-28T01:23:54.009Z,9.80
2019-03-28T01:26:22.062Z,11.73
2019-03-28T01:28:49.970Z,26.10
2019-03-28T01:31:18.190Z,23.30
2019-03-28T01:33:45.947Z,15.93
2019-03-28T01:36:13.971Z,14.20
2019-03-28T01:38:42.852Z,12.43
2019-03-28T01:41:11.327Z,10.77
2019-03-28T01:43:39.311Z,11.83
2019-03-28T01:46:07.268Z,11.47
2019-03-28T01:48:35.173Z,11.83
2019-03-28T01:51:03.178Z,13.07
2019-03-28T01:53:31.192Z,16.73
2019-03-28T01:55:58.955Z,17.63
2019-03-28T01:58:26.814Z,11.70
2019-03-28T02:00:54.751Z,11.77
2019-03-28T02:03:22.847Z,13.97
2019-03-28T02:05:51.029Z,9.07
2019-03-28T02:08:19.010Z,10.53
2019-03-28T02:10:48.132Z,12.43
2019-03-28T02:13:16.044Z,14.17
2019-03-28T02:15:44.117Z,17.47
2019-03-28T02:18:12.160Z,13.67
2019-03-28T02:20:40.227Z,9.87
2019-03-28T02:23:08.368Z,11.93
2019-03-28T02:25:37.198Z,9.03
2019-03-28T02:28:05.165Z,12.33
2019-03-28T02:30:33.854Z,10.00
2019-03-28T02:33:02.370Z,10.10
2019-03-28T02:35:30.239Z,9.37
2019-03-28T02:37:58.339Z,13.10
2019-03-28T02:40:26.198Z,10.27
2019-03-28T02:42:54.321Z,11.00
2019-03-28T02:45:22.185Z,11.33
2019-03-28T02:47:49.999Z,13.87
2019-03-28T02:50:17.915Z,8.07
2019-03-28T02:52:45.818Z,11.07
2019-03-28T02:55:13.678Z,11.87
2019-03-28T02:57:43.687Z,10.17
2019-03-28T03:00:12.246Z,9.20
2019-03-28T03:02:39.984Z,10.00
2019-03-28T03:05:08.344Z,12.87
2019-03-28T03:07:37.323Z,14.27
2019-03-28T03:10:05.397Z,9.60
2019-03-28T03:12:33.387Z,12.23
2019-03-28T03:15:01.297Z,10.77
2019-03-28T03:17:29.180Z,10.77
2019-03-28T03:19:57.415Z,10.87
2019-03-28T03:22:25.275Z,11.20
2019-03-28T03:24:53.003Z,10.90
2019-03-28T03:27:21.012Z,15.10
2019-03-28T03:29:49.175Z,11.97
2019-03-28T03:32:17.115Z,11.30
2019-03-28T03:34:45.216Z,10.50
2019-03-28T03:37:13.080Z,12.60
2019-03-28T03:39:40.914Z,9.10
2019-03-28T03:42:08.941Z,10.30
2019-03-28T03:44:36.928Z,13.50
2019-03-28T03:47:05.950Z,13.50
2019-03-28T03:49:33.799Z,12.40
2019-03-28T03:52:01.546Z,9.90
2019-03-28T03:54:29.435Z,12.20
2019-03-28T03:56:57.143Z,13.60
2019-03-28T03:59:25.486Z,12.90
2019-03-28T04:01:53.422Z,12.73
2019-03-28T04:04:21.942Z,11.20
2019-03-28T04:06:50.915Z,13.53
2019-03-28T04:09:18.922Z,9.50
2019-03-28T04:11:46.912Z,11.57
2019-03-28T04:14:14.942Z,14.40
2019-03-28T04:16:44.386Z,11.03
2019-03-28T04:19:12.213Z,9.47
2019-03-28T04:21:40.294Z,11.17
2019-03-28T04:24:08.334Z,11.40
2019-03-28T04:26:36.435Z,17.77
2019-03-28T04:29:04.791Z,9.47
2019-03-28T04:31:33.226Z,12.87
2019-03-28T04:34:07.503Z,12.97
2019-03-28T04:36:31.429Z,13.70
2019-03-28T04:38:59.608Z,11.73
2019-03-28T04:41:27.363Z,11.60
2019-03-28T04:43:56.044Z,14.80
2019-03-28T04:46:24.191Z,11.23
2019-03-28T04:48:52.520Z,13.87
2019-03-28T04:51:20.778Z,16.87
2019-03-28T04:53:48.927Z,14.60
2019-03-28T04:56:17.109Z,12.20
2019-03-28T04:58:45.102Z,12.10
2019-03-28T05:01:13.086Z,14.20
2019-03-28T05:03:41.486Z,12.07
2019-03-28T05:06:09.655Z,18.77
2019-03-28T05:08:38.075Z,16.43
2019-03-28T05:11:05.981Z,10.90
2019-03-28T05:13:33.755Z,13.27
2019-03-28T05:16:01.615Z,12.40
2019-03-28T05:18:29.344Z,12.63
2019-03-28T05:20:57.230Z,11.80
2019-03-28T05:23:25.034Z,15.00
2019-03-28T05:25:54.040Z,11.60
2019-03-28T05:28:22.234Z,12.70
2019-03-28T05:30:50.212Z,10.20
2019-03-28T05:33:19.604Z,10.80
2019-03-28T05:35:47.450Z,16.87
2019-03-28T05:38:15.475Z,15.37
2019-03-28T05:40:43.881Z,17.07
2019-03-28T05:43:12.079Z,15.53
2019-03-28T05:45:40.315Z,15.03
2019-03-28T05:48:08.350Z,16.03
2019-03-28T05:50:36.377Z,14.07
2019-03-28T05:53:04.332Z,14.07
2019-03-28T05:55:32.143Z,11.53
2019-03-28T05:58:00.354Z,13.10
2019-03-28T06:00:28.716Z,13.93
2019-03-28T06:02:56.871Z,12.70
2019-03-28T06:05:24.803Z,14.70
2019-03-28T06:07:52.540Z,14.50
2019-03-28T06:10:20.596Z,17.00
2019-03-28T06:12:48.633Z,16.53
2019-03-28T06:15:16.610Z,16.00
2019-03-28T06:17:44.629Z,14.50
2019-03-28T06:20:13.212Z,21.97
2019-03-28T06:22:41.206Z,16.63
2019-03-28T06:25:09.298Z,15.93
2019-03-28T06:27:37.170Z,15.47
2019-03-28T06:30:07.285Z,13.73
2019-03-28T06:32:42.842Z,19.70
2019-03-28T06:35:05.393Z,22.93
2019-03-28T06:37:33.404Z,16.57
2019-03-28T06:40:01.403Z,16.50
2019-03-28T06:42:29.438Z,16.43
2019-03-28T06:44:57.399Z,16.70
2019-03-28T06:47:25.366Z,18.93
2019-03-28T06:49:53.920Z,19.37
2019-03-28T06:52:21.927Z,26.07
2019-03-28T06:54:49.980Z,26.50
2019-03-28T06:57:19.001Z,21.30
2019-03-28T06:59:47.101Z,20.67
2019-03-28T07:02:15.304Z,20.67
2019-03-28T07:04:43.224Z,28.17
2019-03-28T07:07:11.431Z,22.97
2019-03-28T07:09:39.600Z,30.53
2019-03-28T07:12:08.721Z,31.77
2019-03-28T07:14:37.838Z,41.77
2019-03-28T07:17:06.223Z,51.87
2019-03-28T07:19:34.090Z,39.33
2019-03-28T07:22:02.106Z,28.60
2019-03-28T07:24:30.075Z,21.33
2019-03-28T07:26:58.237Z,20.87
2019-03-28T07:29:26.148Z,23.47
2019-03-28T07:31:54.014Z,22.30
2019-03-28T07:34:21.860Z,19.40
2019-03-28T07:36:49.907Z,19.17
2019-03-28T07:39:19.299Z,19.43
2019-03-28T07:41:47.376Z,17.97
2019-03-28T07:44:15.125Z,15.73
2019-03-28T07:46:43.003Z,15.03
2019-03-28T07:49:10.896Z,19.37
2019-03-28T07:51:38.655Z,13.67
2019-03-28T07:54:06.651Z,11.37
2019-03-28T07:56:34.598Z,16.10
2019-03-28T07:59:02.506Z,16.13
2019-03-28T08:01:30.513Z,12.57
2019-03-28T08:03:58.347Z,10.73
2019-03-28T08:06:26.517Z,14.67
2019-03-28T08:08:54.531Z,15.07
2019-03-28T08:11:22.511Z,11.23
2019-03-28T08:13:50.514Z,11.00
2019-03-28T08:16:18.360Z,15.10
2019-03-28T08:18:46.070Z,14.63
2019-03-28T08:21:13.996Z,12.83
2019-03-28T08:23:41.888Z,17.27
2019-03-28T08:26:09.918Z,9.97
2019-03-28T08:28:37.973Z,12.23
2019-03-28T08:31:06.034Z,8.93
2019-03-28T08:33:36.048Z,8.70
2019-03-28T08:36:04.731Z,10.50
2019-03-28T08:38:36.042Z,12.03
2019-03-28T08:41:06.993Z,12.10
2019-03-28T08:43:36.045Z,10.87
2019-03-28T08:46:08.499Z,8.47
2019-03-28T08:48:34.989Z,10.67
2019-03-28T08:51:02.993Z,12.03
2019-03-28T08:53:30.980Z,14.73
2019-03-28T08:55:59.126Z,15.40
2019-03-28T08:58:26.933Z,9.53
2019-03-28T09:00:54.899Z,8.47
2019-03-28T09:03:22.671Z,10.67
2019-03-28T09:05:50.670Z,11.03
2019-03-28T09:08:18.490Z,8.20
2019-03-28T09:10:46.505Z,9.73
2019-03-28T09:13:14.935Z,7.90
2019-03-28T09:15:44.248Z,7.20
2019-03-28T09:18:12.461Z,12.40
2019-03-28T09:20:41.472Z,8.83
2019-03-28T09:23:10.619Z,13.83
2019-03-28T09:25:38.658Z,14.80
2019-03-28T09:28:07.026Z,9.80
2019-03-28T09:30:48.095Z,10.07
2019-03-28T09:33:07.576Z,7.83
2019-03-28T09:35:35.609Z,10.27
2019-03-28T09:38:03.698Z,8.70
2019-03-28T09:40:31.852Z,8.97
2019-03-28T09:42:59.923Z,12.40
2019-03-28T09:45:27.833Z,10.60
2019-03-28T09:47:55.838Z,7.77
2019-03-28T09:50:23.912Z,9.17
2019-03-28T09:52:52.002Z,9.50
2019-03-28T09:55:19.825Z,9.87
2019-03-28T09:57:47.958Z,9.77
2019-03-28T10:00:16.560Z,12.97
2019-03-28T10:02:44.529Z,8.83
2019-03-28T10:05:12.556Z,10.00
2019-03-28T10:07:40.578Z,8.07
2019-03-28T10:10:09.313Z,8.60
2019-03-28T10:12:37.597Z,7.03
2019-03-28T10:15:06.938Z,9.87
2019-03-28T10:17:34.786Z,11.90
2019-03-28T10:20:02.740Z,9.13
2019-03-28T10:22:31.017Z,8.60
2019-03-28T10:24:58.989Z,10.87
2019-03-28T10:27:27.224Z,7.80
2019-03-28T10:29:55.169Z,8.23
2019-03-28T10:32:23.134Z,10.10
2019-03-28T10:34:51.052Z,10.37
2019-03-28T10:37:19.041Z,9.43
2019-03-28T10:39:46.899Z,12.53
2019-03-28T10:42:22.087Z,8.87
2019-03-28T10:44:49.979Z,8.43
2019-03-28T10:47:17.931Z,7.87
2019-03-28T10:49:45.678Z,14.13
2019-03-28T10:52:13.916Z,17.97
2019-03-28T10:54:46.756Z,16.17
2019-03-28T10:57:28.923Z,9.30
2019-03-28T10:59:44.496Z,10.60
2019-03-28T11:02:12.640Z,11.40
2019-03-28T11:04:40.741Z,10.40
2019-03-28T11:07:10.595Z,7.47
2019-03-28T11:09:38.272Z,10.83
2019-03-28T11:12:06.160Z,12.57
2019-03-28T11:14:34.395Z,9.40
2019-03-28T11:17:03.048Z,7.13
2019-03-28T11:19:30.995Z,8.97
2019-03-28T11:21:59.316Z,13.97
2019-03-28T11:24:27.286Z,9.43
2019-03-28T11:26:55.454Z,11.73
2019-03-28T11:29:23.464Z,11.53
2019-03-28T11:31:52.454Z,9.67
2019-03-28T11:34:24.118Z,8.97
2019-03-28T11:36:52.117Z,10.20
2019-03-28T11:39:20.861Z,6.73
2019-03-28T11:42:15.836Z,8.27
2019-03-28T11:44:45.513Z,10.10
2019-03-28T11:47:13.445Z,11.93
2019-03-28T11:49:41.484Z,12.90
2019-03-28T11:52:09.572Z,10.70
2019-03-28T11:54:38.681Z,10.60
2019-03-28T11:57:06.679Z,8.07
2019-03-28T11:59:34.700Z,10.53
2019-03-28T12:02:18.633Z,9.57
2019-03-28T12:04:32.906Z,10.50
2019-03-28T12:07:00.785Z,9.40
2019-03-28T12:09:28.643Z,10.33
2019-03-28T12:11:56.767Z,9.60
2019-03-28T12:14:24.652Z,7.67
2019-03-28T12:16:52.595Z,8.83
2019-03-28T12:19:22.320Z,9.30
2019-03-28T12:21:50.198Z,10.00
2019-03-28T12:24:18.161Z,9.93
2019-03-28T12:26:45.986Z,10.60
2019-03-28T12:29:13.959Z,7.90
2019-03-28T12:31:42.568Z,9.70
2019-03-28T12:34:10.615Z,10.23
2019-03-28T12:36:38.626Z,12.00
2019-03-28T12:39:06.581Z,9.83
2019-03-28T12:41:34.572Z,13.13
2019-03-28T12:44:02.454Z,8.10
2019-03-28T12:46:30.387Z,7.07
2019-03-28T12:48:59.454Z,7.50
2019-03-28T12:51:27.375Z,8.20
2019-03-28T12:53:55.687Z,7.17
2019-03-28T12:56:26.277Z,7.73
2019-03-28T12:58:53.399Z,7.23
2019-03-28T13:01:21.411Z,11.90
2019-03-28T13:03:49.401Z,8.70
2019-03-28T13:06:18.241Z,8.13
2019-03-28T13:08:49.352Z,9.20
2019-03-28T13:11:17.393Z,7.03
2019-03-28T13:13:45.348Z,8.77
2019-03-28T13:16:13.393Z,8.60
2019-03-28T13:18:41.557Z,5.70
2019-03-28T13:21:13.817Z,8.80
2019-03-28T13:23:39.791Z,7.30
2019-03-28T13:26:08.709Z,8.37
2019-03-28T13:28:36.786Z,9.57
2019-03-28T13:31:04.982Z,6.90
2019-03-28T13:33:33.071Z,8.73
2019-03-28T13:36:01.159Z,12.40
2019-03-28T13:38:29.290Z,10.30
2019-03-28T13:40:57.577Z,10.97
2019-03-28T13:43:25.567Z,13.90
2019-03-28T13:45:53.605Z,9.63
2019-03-28T13:48:21.807Z,7.43
2019-03-28T13:50:49.932Z,10.80
2019-03-28T13:53:18.903Z,11.07
2019-03-28T13:55:46.995Z,8.63
2019-03-28T13:58:15.094Z,9.67
2019-03-28T14:00:43.214Z,9.07
2019-03-28T14:03:11.491Z,7.60
2019-03-28T14:05:39.658Z,6.87
2019-03-28T14:08:07.759Z,7.17
2019-03-28T14:10:36.877Z,11.23
2019-03-28T14:13:05.156Z,8.50
2019-03-28T14:15:35.131Z,8.73
2019-03-28T14:18:02.895Z,10.70
2019-03-28T14:20:31.273Z,7.50
2019-03-28T14:22:59.313Z,10.77
2019-03-28T14:25:27.309Z,9.90
2019-03-28T14:27:55.272Z,8.13
2019-03-28T14:30:25.361Z,7.10
2019-03-28T14:32:53.969Z,11.90
2019-03-28T14:35:22.003Z,7.67
2019-03-28T14:37:49.968Z,7.97
2019-03-28T14:40:18.107Z,10.67
2019-03-28T14:42:46.070Z,7.30
2019-03-28T14:45:13.958Z,7.43
2019-03-28T14:47:41.912Z,14.30
2019-03-28T14:50:10.595Z,9.60
2019-03-28T14:52:38.581Z,13.00
2019-03-28T14:55:06.579Z,11.93
2019-03-28T14:57:36.483Z,16.47
2019-03-28T15:00:06.007Z,14.37
2019-03-28T15:02:34.470Z,10.03
2019-03-28T15:05:02.642Z,9.53
2019-03-28T15:07:30.660Z,10.43
2019-03-28T15:09:58.692Z,13.10
2019-03-28T15:12:26.431Z,8.33
2019-03-28T15:14:54.508Z,8.83
2019-03-28T15:17:22.752Z,8.93
2019-03-28T15:19:50.586Z,10.80
2019-03-28T15:22:18.521Z,10.97
2019-03-28T15:24:46.517Z,9.00
2019-03-28T15:27:14.527Z,8.73
2019-03-28T15:29:42.936Z,7.03
2019-03-28T15:32:10.907Z,7.37
2019-03-28T15:34:38.852Z,5.57
2019-03-28T15:37:06.904Z,8.43
2019-03-28T15:39:35.070Z,9.03
2019-03-28T15:42:03.292Z,9.97
2019-03-28T15:44:31.459Z,9.03
2019-03-28T15:46:59.346Z,14.60
2019-03-28T15:49:27.887Z,6.93
2019-03-28T15:51:56.187Z,8.13
2019-03-28T15:54:24.078Z,9.83
2019-03-28T15:56:52.097Z,8.57
2019-03-28T15:59:20.428Z,9.00
2019-03-28T16:01:48.296Z,10.43
2019-03-28T16:04:16.234Z,8.47
2019-03-28T16:06:44.198Z,8.17
2019-03-28T16:09:12.049Z,8.47
2019-03-28T16:11:40.190Z,8.30
2019-03-28T16:14:08.153Z,7.17
2019-03-28T16:16:36.260Z,9.13
2019-03-28T16:19:04.086Z,7.53
2019-03-28T16:21:32.049Z,7.80
2019-03-28T16:23:59.886Z,11.10
2019-03-28T16:26:27.911Z,9.60
2019-03-28T16:28:56.568Z,13.67
2019-03-28T16:31:25.776Z,10.57
2019-03-28T16:34:06.311Z,9.93
2019-03-28T16:36:23.840Z,8.73
2019-03-28T16:38:51.701Z,7.37
2019-03-28T16:41:19.714Z,6.97
2019-03-28T16:43:47.611Z,6.83
2019-03-28T16:46:15.419Z,9.87
2019-03-28T16:48:43.247Z,8.07
2019-03-28T16:51:11.164Z,10.70
2019-03-28T16:53:39.107Z,7.27
2019-03-28T16:56:07.221Z,7.80
2019-03-28T16:58:35.129Z,6.77
2019-03-28T17:01:03.153Z,8.73
2019-03-28T17:03:31.259Z,6.87
2019-03-28T17:05:59.093Z,6.20
2019-03-28T17:08:28.273Z,8.30
2019-03-28T17:10:56.203Z,8.10
2019-03-28T17:13:24.414Z,7.73
2019-03-28T17:16:04.668Z,9.87
2019-03-28T17:18:32.812Z,5.60
2019-03-28T17:21:00.742Z,8.17
2019-03-28T17:23:36.445Z,8.47
2019-03-28T17:26:08.559Z,7.93
2019-03-28T17:28:36.754Z,3.93
2019-03-28T17:31:04.593Z,7.03
2019-03-28T17:33:32.453Z,5.17
2019-03-28T17:36:00.300Z,3.70
2019-03-28T17:38:28.308Z,4.10
2019-03-28T17:40:56.258Z,4.77
2019-03-28T17:43:24.473Z,5.90
2019-03-28T17:45:52.481Z,4.33
2019-03-28T17:48:24.266Z,12.13
2019-03-28T17:51:03.879Z,10.73
2019-03-28T17:53:35.229Z,4.57
2019-03-28T17:56:04.206Z,4.70
2019-03-28T17:58:32.240Z,6.53
2019-03-28T18:01:00.223Z,5.73
2019-03-28T18:03:31.492Z,6.07
2019-03-28T18:05:58.796Z,7.43
2019-03-28T18:08:26.786Z,6.53
2019-03-28T18:10:55.960Z,5.70
2019-03-28T18:13:24.491Z,7.27
2019-03-28T18:15:52.732Z,10.63
2019-03-28T18:18:23.354Z,8.33
2019-03-28T18:20:51.655Z,6.40
2019-03-28T18:23:26.169Z,8.00
2019-03-28T18:25:54.839Z,10.03
2019-03-28T18:28:23.128Z,9.40
2019-03-28T18:30:51.367Z,7.70
2019-03-28T18:33:19.433Z,6.83
2019-03-28T18:35:47.658Z,8.23
2019-03-28T18:38:16.954Z,7.63
2019-03-28T18:40:45.250Z,8.60
2019-03-28T18:43:13.349Z,10.57
2019-03-28T18:45:41.520Z,6.77
2019-03-28T18:48:11.029Z,11.20
2019-03-28T18:50:41.340Z,8.87
2019-03-28T18:53:14.828Z,8.37
2019-03-28T18:55:43.267Z,8.03
2019-03-28T18:58:11.693Z,9.07
2019-03-28T19:01:15.790Z,9.23
2019-03-28T19:03:59.726Z,8.47
2019-03-28T19:06:50.391Z,8.13
2019-03-28T19:13:04.757Z,11.43
2019-03-28T19:15:40.718Z,16.23
2019-03-28T19:18:09.241Z,10.33
2019-03-28T19:20:38.968Z,13.00
2019-03-28T19:23:14.389Z,12.70
2019-03-28T19:25:46.903Z,8.50
2019-03-28T19:28:29.045Z,7.93
2019-03-28T19:31:07.657Z,10.77
2019-03-28T19:33:38.367Z,13.83
2019-03-28T19:36:19.682Z,8.30
2019-03-28T19:39:09.037Z,8.30
2019-03-28T19:41:43.936Z,8.13
2019-03-28T19:44:25.981Z,6.60
2019-03-28T19:46:57.546Z,9.60
2019-03-28T19:49:27.823Z,7.90
2019-03-28T19:51:56.769Z,7.67
2019-03-28T19:54:25.105Z,8.13
2019-03-28T19:56:53.427Z,8.17
2019-03-28T19:59:31.761Z,6.70
2019-03-28T20:02:00.080Z,7.90
2019-03-28T20:04:28.594Z,7.23
2019-03-28T20:06:56.680Z,8.13
2019-03-28T20:09:26.111Z,7.17
2019-03-28T20:11:54.483Z,7.20
2019-03-28T20:14:22.819Z,5.70
2019-03-28T20:16:51.882Z,6.27
2019-03-28T20:19:20.425Z,7.90
2019-03-28T20:21:48.986Z,6.47
2019-03-28T20:24:17.424Z,6.57
2019-03-28T20:26:45.780Z,5.70
2019-03-28T20:29:20.799Z,6.67
2019-03-28T20:31:51.228Z,7.37
2019-03-28T20:34:19.545Z,6.30
2019-03-28T20:36:47.891Z,7.03
2019-03-28T20:39:16.041Z,7.33
2019-03-28T20:41:44.334Z,6.13
2019-03-28T20:44:12.504Z,9.30
2019-03-28T20:46:40.891Z,5.80
2019-03-28T20:49:10.204Z,4.00
2019-03-28T20:51:38.484Z,4.63
2019-03-28T20:54:07.868Z,6.13
2019-03-28T20:56:36.273Z,7.00
2019-03-28T20:59:04.502Z,6.73
2019-03-28T21:01:32.675Z,6.23
2019-03-28T21:04:00.985Z,7.77
2019-03-28T21:06:29.549Z,9.40
2019-03-28T21:08:57.818Z,5.10
2019-03-28T21:11:26.022Z,6.17
2019-03-28T21:13:58.833Z,6.83
2019-03-28T21:16:30.010Z,7.93
2019-03-28T21:18:58.227Z,6.00
2019-03-28T21:21:32.292Z,8.77
2019-03-28T21:24:05.294Z,6.40
2019-03-28T21:26:33.593Z,8.97
2019-03-28T21:29:01.902Z,6.67
2019-03-28T21:31:30.023Z,7.00
2019-03-28T21:33:58.210Z,7.37
2019-03-28T21:36:30.248Z,9.63
2019-03-28T21:39:00.875Z,8.20
2019-03-28T21:41:28.857Z,6.47
2019-03-28T21:43:57.135Z,9.37
2019-03-28T21:46:25.357Z,6.10
2019-03-28T21:48:53.794Z,7.33
2019-03-28T21:51:22.601Z,9.63
2019-03-28T21:53:52.242Z,7.20
2019-03-28T21:56:20.406Z,8.03
2019-03-28T21:58:48.626Z,6.53
2019-03-28T22:01:22.443Z,8.23
2019-03-28T22:03:54.066Z,8.10
2019-03-28T22:06:22.999Z,7.40
2019-03-28T22:08:51.479Z,7.77
2019-03-28T22:11:19.665Z,13.83
2019-03-28T22:14:10.783Z,9.03
2019-03-28T22:16:45.528Z,9.83
2019-03-28T22:19:19.040Z,9.70
2019-03-28T22:22:11.107Z,10.67
2019-03-28T22:24:39.664Z,9.93
2019-03-28T22:27:15.961Z,8.90
2019-03-28T22:29:44.531Z,10.57
2019-03-28T22:32:23.156Z,14.70
2019-03-28T22:34:51.774Z,11.67
2019-03-28T22:37:19.795Z,10.30
2019-03-28T22:39:48.196Z,12.17
2019-03-28T22:46:09.757Z,11.90
2019-03-28T22:48:47.018Z,11.40
2019-03-28T22:51:24.852Z,10.77
2019-03-28T22:54:06.460Z,12.00
2019-03-28T22:56:54.742Z,11.27
2019-03-28T22:59:30.362Z,12.73
2019-03-28T23:02:01.375Z,12.77
2019-03-28T23:04:29.926Z,12.83
2019-03-28T23:07:32.651Z,11.13
2019-03-28T23:10:11.418Z,14.80
2019-03-28T23:12:48.184Z,12.03
2019-03-28T23:15:23.764Z,13.30
2019-03-28T23:18:02.049Z,12.93
2019-03-28T23:20:41.809Z,11.17
2019-03-28T23:23:15.098Z,12.27
2019-03-28T23:25:45.158Z,11.20
2019-03-28T23:28:13.574Z,9.70
2019-03-28T23:30:41.863Z,12.17
2019-03-28T23:33:10.080Z,12.40
2019-03-28T23:35:45.420Z,10.87
2019-03-28T23:38:19.895Z,14.33
2019-03-28T23:40:48.559Z,12.63
2019-03-28T23:43:16.773Z,13.47
2019-03-28T23:45:45.807Z,10.27
2019-03-28T23:48:14.335Z,14.33
2019-03-28T23:50:42.510Z,10.00
2019-03-28T23:53:14.685Z,12.23
2019-03-28T23:55:43.031Z,11.10
2019-03-28T23:58:18.436Z,9.20
